sensor_id;sensor_type;location;lat;lon;timestamp;pressure;altitude;pressure_sealevel;temperature;humidity
8641;BME280;4358;42.100;25.222;2024-03-25T00:00:40;98471.19;;;10.05;100.00
8641;BME280;4358;42.100;25.222;2024-03-25T00:03:06;98458.97;;;10.14;100.00
8641;BME280;4358;42.100;25.222;2024-03-25T00:05:33;98455.47;;;10.13;100.00
8641;BME280;4358;42.100;25.222;2024-03-25T00:07:59;98456.72;;;10.09;100.00
8641;BME280;4358;42.100;25.222;2024-03-25T00:10:27;98457.25;;;10.03;100.00
8641;BME280;4358;42.100;25.222;2024-03-25T00:12:53;98445.78;;;9.93;100.00
8641;BME280;4358;42.100;25.222;2024-03-25T00:15:22;98429.00;;;9.83;100.00
8641;BME280;4358;42.100;25.222;2024-03-25T00:17:49;98429.53;;;9.77;100.00
8641;BME280;4358;42.100;25.222;2024-03-25T00:20:16;98420.34;;;9.81;100.00
8641;BME280;4358;42.100;25.222;2024-03-25T00:22:42;98414.47;;;9.77;100.00
8641;BME280;4358;42.100;25.222;2024-03-25T00:25:09;98412.47;;;9.70;100.00
8641;BME280;4358;42.100;25.222;2024-03-25T00:27:36;98396.03;;;9.66;100.00
8641;BME280;4358;42.100;25.222;2024-03-25T00:30:03;98398.28;;;9.71;100.00
8641;BME280;4358;42.100;25.222;2024-03-25T00:32:30;98386.00;;;9.70;100.00
8641;BME280;4358;42.100;25.222;2024-03-25T00:34:57;98375.16;;;9.73;100.00
8641;BME280;4358;42.100;25.222;2024-03-25T00:37:23;98363.72;;;9.82;100.00
8641;BME280;4358;42.100;25.222;2024-03-25T00:39:50;98366.38;;;9.82;100.00
8641;BME280;4358;42.100;25.222;2024-03-25T00:42:16;98364.41;;;9.84;100.00
8641;BME280;4358;42.100;25.222;2024-03-25T00:44:44;98362.91;;;9.91;100.00
8641;BME280;4358;42.100;25.222;2024-03-25T00:47:09;98360.25;;;9.91;100.00
8641;BME280;4358;42.100;25.222;2024-03-25T00:49:36;98367.97;;;9.94;100.00
8641;BME280;4358;42.100;25.222;2024-03-25T00:52:02;98370.75;;;10.02;100.00
8641;BME280;4358;42.100;25.222;2024-03-25T00:54:29;98361.28;;;10.09;100.00
8641;BME280;4358;42.100;25.222;2024-03-25T00:56:55;98357.13;;;10.16;100.00
8641;BME280;4358;42.100;25.222;2024-03-25T00:59:24;98347.47;;;10.15;100.00
8641;BME280;4358;42.100;25.222;2024-03-25T01:01:51;98351.13;;;10.14;100.00
8641;BME280;4358;42.100;25.222;2024-03-25T01:04:18;98352.25;;;10.22;100.00
8641;BME280;4358;42.100;25.222;2024-03-25T01:06:43;98349.06;;;10.28;100.00
8641;BME280;4358;42.100;25.222;2024-03-25T01:09:10;98355.19;;;10.38;100.00
8641;BME280;4358;42.100;25.222;2024-03-25T01:11:36;98361.75;;;10.53;100.00
8641;BME280;4358;42.100;25.222;2024-03-25T01:14:03;98380.91;;;10.56;100.00
8641;BME280;4358;42.100;25.222;2024-03-25T01:16:28;98375.31;;;10.59;100.00
8641;BME280;4358;42.100;25.222;2024-03-25T01:18:57;98372.53;;;10.61;100.00
8641;BME280;4358;42.100;25.222;2024-03-25T01:21:23;98387.03;;;10.76;100.00
8641;BME280;4358;42.100;25.222;2024-03-25T01:23:50;98395.41;;;10.81;100.00
8641;BME280;4358;42.100;25.222;2024-03-25T01:26:16;98393.72;;;10.80;100.00
8641;BME280;4358;42.100;25.222;2024-03-25T01:28:43;98390.97;;;10.72;100.00
8641;BME280;4358;42.100;25.222;2024-03-25T01:31:09;98410.63;;;10.89;100.00
8641;BME280;4358;42.100;25.222;2024-03-25T01:33:35;98388.41;;;10.99;100.00
8641;BME280;4358;42.100;25.222;2024-03-25T01:36:04;98358.13;;;10.73;100.00
8641;BME280;4358;42.100;25.222;2024-03-25T01:38:30;98359.69;;;10.66;100.00
8641;BME280;4358;42.100;25.222;2024-03-25T01:41:07;98339.84;;;10.51;100.00
8641;BME280;4358;42.100;25.222;2024-03-25T01:43:33;98335.78;;;10.47;100.00
8641;BME280;4358;42.100;25.222;2024-03-25T01:45:59;98329.38;;;10.40;100.00
8641;BME280;4358;42.100;25.222;2024-03-25T01:48:25;98333.97;;;10.38;100.00
8641;BME280;4358;42.100;25.222;2024-03-25T01:50:53;98342.34;;;10.43;100.00
8641;BME280;4358;42.100;25.222;2024-03-25T01:53:20;98364.97;;;10.47;100.00
8641;BME280;4358;42.100;25.222;2024-03-25T01:55:48;98395.69;;;10.40;100.00
8641;BME280;4358;42.100;25.222;2024-03-25T01:58:14;98492.84;;;10.50;100.00
8641;BME280;4358;42.100;25.222;2024-03-25T02:00:42;98516.28;;;10.36;100.00
8641;BME280;4358;42.100;25.222;2024-03-25T02:03:08;98530.72;;;10.22;100.00
8641;BME280;4358;42.100;25.222;2024-03-25T02:05:35;98526.00;;;10.26;100.00
8641;BME280;4358;42.100;25.222;2024-03-25T02:08:04;98548.38;;;10.42;100.00
8641;BME280;4358;42.100;25.222;2024-03-25T02:10:34;98549.84;;;10.56;100.00
8641;BME280;4358;42.100;25.222;2024-03-25T02:13:01;98546.34;;;10.65;100.00
8641;BME280;4358;42.100;25.222;2024-03-25T02:15:28;98536.19;;;10.70;100.00
8641;BME280;4358;42.100;25.222;2024-03-25T02:17:54;98531.16;;;10.77;100.00
8641;BME280;4358;42.100;25.222;2024-03-25T02:20:21;98533.41;;;10.91;100.00
8641;BME280;4358;42.100;25.222;2024-03-25T02:22:47;98540.28;;;10.93;100.00
8641;BME280;4358;42.100;25.222;2024-03-25T02:25:14;98542.09;;;10.83;100.00
8641;BME280;4358;42.100;25.222;2024-03-25T02:27:43;98547.03;;;10.57;100.00
8641;BME280;4358;42.100;25.222;2024-03-25T02:30:11;98551.94;;;10.22;100.00
8641;BME280;4358;42.100;25.222;2024-03-25T02:32:38;98561.13;;;9.97;100.00
8641;BME280;4358;42.100;25.222;2024-03-25T02:35:07;98562.97;;;9.76;100.00
8641;BME280;4358;42.100;25.222;2024-03-25T02:37:33;98546.94;;;9.36;100.00
8641;BME280;4358;42.100;25.222;2024-03-25T02:40:01;98561.31;;;9.22;100.00
8641;BME280;4358;42.100;25.222;2024-03-25T02:42:28;98573.63;;;9.12;100.00
8641;BME280;4358;42.100;25.222;2024-03-25T02:44:57;98576.66;;;8.97;100.00
8641;BME280;4358;42.100;25.222;2024-03-25T02:47:23;98572.41;;;8.84;100.00
8641;BME280;4358;42.100;25.222;2024-03-25T02:49:50;98572.28;;;8.75;100.00
8641;BME280;4358;42.100;25.222;2024-03-25T02:52:16;98574.94;;;8.64;100.00
8641;BME280;4358;42.100;25.222;2024-03-25T02:54:43;98573.75;;;8.57;100.00
8641;BME280;4358;42.100;25.222;2024-03-25T02:57:09;98579.41;;;8.52;100.00
8641;BME280;4358;42.100;25.222;2024-03-25T02:59:36;98571.13;;;8.45;100.00
8641;BME280;4358;42.100;25.222;2024-03-25T03:02:03;98572.09;;;8.33;100.00
8641;BME280;4358;42.100;25.222;2024-03-25T03:04:30;98586.03;;;8.35;100.00
8641;BME280;4358;42.100;25.222;2024-03-25T03:06:56;98599.22;;;8.24;100.00
8641;BME280;4358;42.100;25.222;2024-03-25T03:09:23;98604.06;;;8.30;100.00
8641;BME280;4358;42.100;25.222;2024-03-25T03:11:49;98611.22;;;8.28;100.00
8641;BME280;4358;42.100;25.222;2024-03-25T03:14:16;98605.94;;;8.28;100.00
8641;BME280;4358;42.100;25.222;2024-03-25T03:16:42;98606.41;;;8.22;100.00
8641;BME280;4358;42.100;25.222;2024-03-25T03:19:10;98623.72;;;8.26;100.00
8641;BME280;4358;42.100;25.222;2024-03-25T03:21:36;98620.34;;;8.24;100.00
8641;BME280;4358;42.100;25.222;2024-03-25T03:24:03;98626.59;;;8.23;100.00
8641;BME280;4358;42.100;25.222;2024-03-25T03:26:29;98628.53;;;8.21;100.00
8641;BME280;4358;42.100;25.222;2024-03-25T03:28:56;98633.81;;;8.21;100.00
8641;BME280;4358;42.100;25.222;2024-03-25T03:31:21;98643.66;;;8.19;100.00
8641;BME280;4358;42.100;25.222;2024-03-25T03:33:48;98636.09;;;8.15;100.00
8641;BME280;4358;42.100;25.222;2024-03-25T03:36:17;98649.41;;;8.13;100.00
8641;BME280;4358;42.100;25.222;2024-03-25T03:38:44;98638.00;;;8.13;100.00
8641;BME280;4358;42.100;25.222;2024-03-25T03:41:10;98643.28;;;8.13;100.00
8641;BME280;4358;42.100;25.222;2024-03-25T03:43:37;98636.56;;;8.08;100.00
8641;BME280;4358;42.100;25.222;2024-03-25T03:46:03;98628.72;;;8.07;100.00
8641;BME280;4358;42.100;25.222;2024-03-25T03:48:30;98624.41;;;8.06;100.00
8641;BME280;4358;42.100;25.222;2024-03-25T03:50:56;98626.34;;;8.04;100.00
8641;BME280;4358;42.100;25.222;2024-03-25T03:53:24;98621.16;;;8.02;100.00
8641;BME280;4358;42.100;25.222;2024-03-25T03:55:53;98631.72;;;8.02;100.00
8641;BME280;4358;42.100;25.222;2024-03-25T03:58:21;98622.00;;;8.03;100.00
8641;BME280;4358;42.100;25.222;2024-03-25T04:00:46;98636.66;;;8.07;100.00
8641;BME280;4358;42.100;25.222;2024-03-25T04:03:13;98636.91;;;8.04;100.00
8641;BME280;4358;42.100;25.222;2024-03-25T04:05:39;98647.38;;;8.05;100.00
8641;BME280;4358;42.100;25.222;2024-03-25T04:08:07;98637.47;;;7.96;100.00
8641;BME280;4358;42.100;25.222;2024-03-25T04:10:35;98657.69;;;8.08;100.00
8641;BME280;4358;42.100;25.222;2024-03-25T04:13:02;98667.41;;;8.08;100.00
8641;BME280;4358;42.100;25.222;2024-03-25T04:15:29;98672.47;;;8.11;100.00
8641;BME280;4358;42.100;25.222;2024-03-25T04:17:56;98660.81;;;8.14;100.00
8641;BME280;4358;42.100;25.222;2024-03-25T04:20:22;98672.00;;;8.17;100.00
8641;BME280;4358;42.100;25.222;2024-03-25T04:22:49;98669.97;;;8.21;100.00
8641;BME280;4358;42.100;25.222;2024-03-25T04:25:15;98690.03;;;8.23;100.00
8641;BME280;4358;42.100;25.222;2024-03-25T04:27:43;98678.25;;;8.27;100.00
8641;BME280;4358;42.100;25.222;2024-03-25T04:30:11;98683.78;;;8.24;100.00
8641;BME280;4358;42.100;25.222;2024-03-25T04:32:38;98689.19;;;8.23;100.00
8641;BME280;4358;42.100;25.222;2024-03-25T04:35:05;98701.53;;;8.22;100.00
8641;BME280;4358;42.100;25.222;2024-03-25T04:37:33;98700.09;;;8.18;100.00
8641;BME280;4358;42.100;25.222;2024-03-25T04:39:59;98696.03;;;8.14;100.00
8641;BME280;4358;42.100;25.222;2024-03-25T04:42:25;98704.19;;;8.11;100.00
8641;BME280;4358;42.100;25.222;2024-03-25T04:44:52;98700.06;;;8.07;100.00
8641;BME280;4358;42.100;25.222;2024-03-25T04:47:18;98700.06;;;8.07;100.00
8641;BME280;4358;42.100;25.222;2024-03-25T04:49:44;98695.06;;;8.15;100.00
8641;BME280;4358;42.100;25.222;2024-03-25T04:52:10;98701.66;;;8.09;100.00
8641;BME280;4358;42.100;25.222;2024-03-25T04:54:37;98697.91;;;8.12;100.00
8641;BME280;4358;42.100;25.222;2024-03-25T04:57:03;98707.53;;;8.13;100.00
8641;BME280;4358;42.100;25.222;2024-03-25T04:59:28;98701.41;;;8.13;100.00
8641;BME280;4358;42.100;25.222;2024-03-25T05:01:56;98712.97;;;8.23;100.00
8641;BME280;4358;42.100;25.222;2024-03-25T05:04:21;98716.69;;;8.20;100.00
8641;BME280;4358;42.100;25.222;2024-03-25T05:06:47;98716.44;;;8.23;100.00
8641;BME280;4358;42.100;25.222;2024-03-25T05:09:13;98715.75;;;8.21;100.00
8641;BME280;4358;42.100;25.222;2024-03-25T05:11:39;98707.53;;;8.13;100.00
8641;BME280;4358;42.100;25.222;2024-03-25T05:14:05;98705.84;;;8.12;100.00
8641;BME280;4358;42.100;25.222;2024-03-25T05:16:31;98708.84;;;8.07;100.00
8641;BME280;4358;42.100;25.222;2024-03-25T05:18:58;98712.13;;;8.11;100.00
8641;BME280;4358;42.100;25.222;2024-03-25T05:21:24;98704.41;;;8.08;100.00
8641;BME280;4358;42.100;25.222;2024-03-25T05:23:49;98702.59;;;8.08;100.00
8641;BME280;4358;42.100;25.222;2024-03-25T05:26:15;98705.25;;;8.08;100.00
8641;BME280;4358;42.100;25.222;2024-03-25T05:28:41;98713.06;;;8.10;100.00
8641;BME280;4358;42.100;25.222;2024-03-25T05:31:07;98721.50;;;8.15;100.00
8641;BME280;4358;42.100;25.222;2024-03-25T05:33:33;98722.09;;;8.19;100.00
8641;BME280;4358;42.100;25.222;2024-03-25T05:36:01;98736.03;;;8.21;100.00
8641;BME280;4358;42.100;25.222;2024-03-25T05:38:27;98722.69;;;8.22;100.00
8641;BME280;4358;42.100;25.222;2024-03-25T05:40:53;98722.09;;;8.19;100.00
8641;BME280;4358;42.100;25.222;2024-03-25T05:43:19;98733.06;;;8.25;100.00
8641;BME280;4358;42.100;25.222;2024-03-25T05:45:50;98736.41;;;8.27;100.00
8641;BME280;4358;42.100;25.222;2024-03-25T05:48:16;98743.38;;;8.28;100.00
8641;BME280;4358;42.100;25.222;2024-03-25T05:50:42;98747.50;;;8.32;100.00
8641;BME280;4358;42.100;25.222;2024-03-25T05:53:09;98750.66;;;8.48;100.00
8641;BME280;4358;42.100;25.222;2024-03-25T05:55:35;98753.56;;;8.57;100.00
8641;BME280;4358;42.100;25.222;2024-03-25T05:58:01;98758.25;;;8.64;100.00
8641;BME280;4358;42.100;25.222;2024-03-25T06:00:27;98774.03;;;8.77;100.00
8641;BME280;4358;42.100;25.222;2024-03-25T06:02:53;98775.25;;;8.84;100.00
8641;BME280;4358;42.100;25.222;2024-03-25T06:05:19;98807.25;;;8.92;100.00
8641;BME280;4358;42.100;25.222;2024-03-25T06:07:45;98799.31;;;9.03;100.00
8641;BME280;4358;42.100;25.222;2024-03-25T06:10:12;98836.25;;;9.16;100.00
8641;BME280;4358;42.100;25.222;2024-03-25T06:12:38;98815.78;;;9.18;100.00
8641;BME280;4358;42.100;25.222;2024-03-25T06:15:05;98828.19;;;9.17;100.00
8641;BME280;4358;42.100;25.222;2024-03-25T06:17:31;98839.25;;;9.11;100.00
8641;BME280;4358;42.100;25.222;2024-03-25T06:19:57;98840.72;;;9.15;100.00
8641;BME280;4358;42.100;25.222;2024-03-25T06:22:22;98834.19;;;9.08;100.00
8641;BME280;4358;42.100;25.222;2024-03-25T06:24:48;98834.69;;;9.13;100.00
8641;BME280;4358;42.100;25.222;2024-03-25T06:27:16;98838.78;;;9.17;100.00
8641;BME280;4358;42.100;25.222;2024-03-25T06:29:41;98838.28;;;9.23;100.00
8641;BME280;4358;42.100;25.222;2024-03-25T06:32:07;98847.19;;;9.22;100.00
8641;BME280;4358;42.100;25.222;2024-03-25T06:34:51;98839.03;;;9.25;100.00
8641;BME280;4358;42.100;25.222;2024-03-25T06:37:17;98841.44;;;9.28;100.00
8641;BME280;4358;42.100;25.222;2024-03-25T06:39:43;98858.75;;;9.32;100.00
8641;BME280;4358;42.100;25.222;2024-03-25T06:42:09;98849.97;;;9.43;100.00
8641;BME280;4358;42.100;25.222;2024-03-25T06:44:36;98862.97;;;9.57;100.00
8641;BME280;4358;42.100;25.222;2024-03-25T06:47:01;98865.25;;;9.62;100.00
8641;BME280;4358;42.100;25.222;2024-03-25T06:49:27;98865.63;;;9.57;100.00
8641;BME280;4358;42.100;25.222;2024-03-25T06:51:54;98879.47;;;9.61;100.00
8641;BME280;4358;42.100;25.222;2024-03-25T06:54:20;98871.88;;;9.56;100.00
8641;BME280;4358;42.100;25.222;2024-03-25T06:56:45;98882.59;;;9.55;100.00
8641;BME280;4358;42.100;25.222;2024-03-25T06:59:11;98892.81;;;9.59;100.00
8641;BME280;4358;42.100;25.222;2024-03-25T07:01:38;98883.53;;;9.65;100.00
8641;BME280;4358;42.100;25.222;2024-03-25T07:04:04;98885.72;;;9.71;100.00
8641;BME280;4358;42.100;25.222;2024-03-25T07:06:30;98893.66;;;9.82;100.00
8641;BME280;4358;42.100;25.222;2024-03-25T07:08:56;98916.66;;;9.82;100.00
8641;BME280;4358;42.100;25.222;2024-03-25T07:11:22;98904.72;;;9.76;100.00
8641;BME280;4358;42.100;25.222;2024-03-25T07:13:48;98913.91;;;9.72;100.00
8641;BME280;4358;42.100;25.222;2024-03-25T07:16:13;98931.72;;;9.70;100.00
8641;BME280;4358;42.100;25.222;2024-03-25T07:18:41;98914.63;;;9.63;100.00
8641;BME280;4358;42.100;25.222;2024-03-25T07:21:06;98899.91;;;9.70;100.00
8641;BME280;4358;42.100;25.222;2024-03-25T07:23:32;98907.84;;;9.92;100.00
8641;BME280;4358;42.100;25.222;2024-03-25T07:25:58;98901.19;;;10.09;100.00
8641;BME280;4358;42.100;25.222;2024-03-25T07:28:24;98915.06;;;10.01;100.00
8641;BME280;4358;42.100;25.222;2024-03-25T07:30:50;98916.53;;;9.94;100.00
8641;BME280;4358;42.100;25.222;2024-03-25T07:33:16;98919.91;;;9.85;100.00
8641;BME280;4358;42.100;25.222;2024-03-25T07:35:44;98927.72;;;9.64;100.00
8641;BME280;4358;42.100;25.222;2024-03-25T07:38:10;98919.31;;;9.59;100.00
8641;BME280;4358;42.100;25.222;2024-03-25T07:40:36;98937.97;;;9.58;100.00
8641;BME280;4358;42.100;25.222;2024-03-25T07:43:02;98950.97;;;9.50;100.00
8641;BME280;4358;42.100;25.222;2024-03-25T07:45:27;98939.91;;;9.67;100.00
8641;BME280;4358;42.100;25.222;2024-03-25T07:47:53;98920.84;;;9.95;100.00
8641;BME280;4358;42.100;25.222;2024-03-25T07:50:19;98954.81;;;10.12;100.00
8641;BME280;4358;42.100;25.222;2024-03-25T07:52:47;98935.69;;;10.20;100.00
8641;BME280;4358;42.100;25.222;2024-03-25T07:55:13;98922.25;;;10.33;100.00
8641;BME280;4358;42.100;25.222;2024-03-25T07:57:38;98945.47;;;10.51;100.00
8641;BME280;4358;42.100;25.222;2024-03-25T08:00:05;98952.03;;;10.68;100.00
8641;BME280;4358;42.100;25.222;2024-03-25T08:02:31;98939.13;;;10.95;100.00
8641;BME280;4358;42.100;25.222;2024-03-25T08:04:57;98947.56;;;11.00;100.00
8641;BME280;4358;42.100;25.222;2024-03-25T08:07:23;98943.16;;;11.11;100.00
8641;BME280;4358;42.100;25.222;2024-03-25T08:09:50;98938.44;;;11.35;100.00
8641;BME280;4358;42.100;25.222;2024-03-25T08:12:16;98945.72;;;11.63;100.00
8641;BME280;4358;42.100;25.222;2024-03-25T08:14:42;98950.44;;;11.80;100.00
8641;BME280;4358;42.100;25.222;2024-03-25T08:17:08;98950.88;;;11.85;100.00
8641;BME280;4358;42.100;25.222;2024-03-25T08:19:34;98939.38;;;11.75;100.00
8641;BME280;4358;42.100;25.222;2024-03-25T08:22:00;98940.28;;;11.65;100.00
8641;BME280;4358;42.100;25.222;2024-03-25T08:24:25;98924.44;;;11.63;100.00
8641;BME280;4358;42.100;25.222;2024-03-25T08:26:53;98920.50;;;11.78;100.00
8641;BME280;4358;42.100;25.222;2024-03-25T08:29:18;98926.16;;;11.95;100.00
8641;BME280;4358;42.100;25.222;2024-03-25T08:31:44;98923.91;;;12.00;100.00
8641;BME280;4358;42.100;25.222;2024-03-25T08:34:10;98942.81;;;11.97;100.00
8641;BME280;4358;42.100;25.222;2024-03-25T08:36:36;98948.63;;;11.81;100.00
8641;BME280;4358;42.100;25.222;2024-03-25T08:39:02;98936.88;;;11.83;100.00
8641;BME280;4358;42.100;25.222;2024-03-25T08:41:28;98927.13;;;11.94;100.00
8641;BME280;4358;42.100;25.222;2024-03-25T08:43:55;98924.66;;;12.11;100.00
8641;BME280;4358;42.100;25.222;2024-03-25T08:46:21;98914.34;;;12.37;100.00
8641;BME280;4358;42.100;25.222;2024-03-25T08:48:46;98926.16;;;12.54;100.00
8641;BME280;4358;42.100;25.222;2024-03-25T08:51:13;98916.06;;;12.48;100.00
8641;BME280;4358;42.100;25.222;2024-03-25T08:53:39;98939.31;;;12.74;100.00
8641;BME280;4358;42.100;25.222;2024-03-25T08:56:05;98934.84;;;12.75;100.00
8641;BME280;4358;42.100;25.222;2024-03-25T08:58:31;98938.47;;;12.64;99.68
8641;BME280;4358;42.100;25.222;2024-03-25T09:00:58;98926.31;;;12.81;100.00
8641;BME280;4358;42.100;25.222;2024-03-25T09:03:24;98937.66;;;13.02;100.00
8641;BME280;4358;42.100;25.222;2024-03-25T09:05:50;98914.91;;;12.98;97.45
8641;BME280;4358;42.100;25.222;2024-03-25T09:08:15;98936.66;;;12.84;96.57
8641;BME280;4358;42.100;25.222;2024-03-25T09:10:43;98945.75;;;12.43;97.69
8641;BME280;4358;42.100;25.222;2024-03-25T09:13:28;98919.25;;;12.22;99.44
8641;BME280;4358;42.100;25.222;2024-03-25T09:15:54;98921.91;;;12.32;100.00
8641;BME280;4358;42.100;25.222;2024-03-25T09:18:21;98928.50;;;12.28;98.75
8641;BME280;4358;42.100;25.222;2024-03-25T09:20:47;98944.34;;;12.39;100.00
8641;BME280;4358;42.100;25.222;2024-03-25T09:23:13;98939.88;;;12.40;100.00
8641;BME280;4358;42.100;25.222;2024-03-25T09:25:39;98918.41;;;12.31;99.16
8641;BME280;4358;42.100;25.222;2024-03-25T09:28:05;98924.19;;;12.56;98.90
8641;BME280;4358;42.100;25.222;2024-03-25T09:30:31;98914.53;;;12.84;97.10
8641;BME280;4358;42.100;25.222;2024-03-25T09:32:57;98915.19;;;13.05;97.62
8641;BME280;4358;42.100;25.222;2024-03-25T09:35:24;98904.97;;;13.10;94.79
8641;BME280;4358;42.100;25.222;2024-03-25T09:37:50;98899.94;;;13.07;96.11
8641;BME280;4358;42.100;25.222;2024-03-25T09:40:16;98903.97;;;13.11;95.42
8641;BME280;4358;42.100;25.222;2024-03-25T09:42:47;98924.75;;;13.27;93.89
8641;BME280;4358;42.100;25.222;2024-03-25T09:45:16;98914.34;;;13.33;93.51
8641;BME280;4358;42.100;25.222;2024-03-25T09:47:46;98917.84;;;13.43;93.31
8641;BME280;4358;42.100;25.222;2024-03-25T09:50:13;98912.19;;;13.46;93.52
8641;BME280;4358;42.100;25.222;2024-03-25T09:52:40;98927.44;;;13.64;91.10
8641;BME280;4358;42.100;25.222;2024-03-25T09:55:07;98933.88;;;13.71;89.73
8641;BME280;4358;42.100;25.222;2024-03-25T09:57:34;98923.22;;;13.61;88.93
8641;BME280;4358;42.100;25.222;2024-03-25T10:00:00;98952.69;;;13.69;88.47
8641;BME280;4358;42.100;25.222;2024-03-25T10:02:28;98921.22;;;13.73;89.76
8641;BME280;4358;42.100;25.222;2024-03-25T10:04:55;98926.00;;;13.79;86.77
8641;BME280;4358;42.100;25.222;2024-03-25T10:07:24;98925.88;;;13.98;87.45
8641;BME280;4358;42.100;25.222;2024-03-25T10:09:52;98945.53;;;14.07;87.82
8641;BME280;4358;42.100;25.222;2024-03-25T10:12:18;98923.63;;;14.03;87.96
8641;BME280;4358;42.100;25.222;2024-03-25T10:14:44;98933.91;;;14.25;86.68
8641;BME280;4358;42.100;25.222;2024-03-25T10:17:10;98936.06;;;14.49;87.36
8641;BME280;4358;42.100;25.222;2024-03-25T10:19:36;98984.50;;;14.54;84.49
8641;BME280;4358;42.100;25.222;2024-03-25T10:22:03;98962.97;;;14.56;86.13
8641;BME280;4358;42.100;25.222;2024-03-25T10:24:37;98944.44;;;14.54;85.18
8641;BME280;4358;42.100;25.222;2024-03-25T10:27:04;98966.88;;;14.79;83.85
8641;BME280;4358;42.100;25.222;2024-03-25T10:29:30;98949.72;;;14.64;82.63
8641;BME280;4358;42.100;25.222;2024-03-25T10:31:59;98949.63;;;14.73;82.77
8641;BME280;4358;42.100;25.222;2024-03-25T10:34:25;98963.53;;;14.77;82.60
8641;BME280;4358;42.100;25.222;2024-03-25T10:36:56;98962.84;;;14.75;83.22
8641;BME280;4358;42.100;25.222;2024-03-25T10:39:26;98966.66;;;14.90;83.02
8641;BME280;4358;42.100;25.222;2024-03-25T10:41:55;98946.16;;;14.46;81.58
8641;BME280;4358;42.100;25.222;2024-03-25T10:44:23;98978.00;;;14.57;81.67
8641;BME280;4358;42.100;25.222;2024-03-25T10:46:53;98947.41;;;14.51;78.70
8641;BME280;4358;42.100;25.222;2024-03-25T10:49:27;98969.97;;;14.29;76.45
8641;BME280;4358;42.100;25.222;2024-03-25T10:51:59;98976.50;;;14.45;75.49
8641;BME280;4358;42.100;25.222;2024-03-25T10:54:26;98964.66;;;14.57;73.58
8641;BME280;4358;42.100;25.222;2024-03-25T10:56:55;98998.84;;;14.71;71.91
8641;BME280;4358;42.100;25.222;2024-03-25T10:59:22;98968.72;;;14.78;66.83
8641;BME280;4358;42.100;25.222;2024-03-25T11:01:49;98974.59;;;14.82;64.94
8641;BME280;4358;42.100;25.222;2024-03-25T11:04:15;98971.31;;;15.06;66.40
8641;BME280;4358;42.100;25.222;2024-03-25T11:06:41;98955.56;;;15.20;64.45
8641;BME280;4358;42.100;25.222;2024-03-25T11:09:07;98957.91;;;15.23;65.36
8641;BME280;4358;42.100;25.222;2024-03-25T11:11:33;98960.06;;;15.20;64.04
8641;BME280;4358;42.100;25.222;2024-03-25T11:14:02;98967.47;;;15.26;66.46
8641;BME280;4358;42.100;25.222;2024-03-25T11:16:32;98954.53;;;15.39;68.75
8641;BME280;4358;42.100;25.222;2024-03-25T11:19:01;98967.34;;;15.27;64.36
8641;BME280;4358;42.100;25.222;2024-03-25T11:21:27;98937.28;;;15.34;64.30
8641;BME280;4358;42.100;25.222;2024-03-25T11:23:54;98969.81;;;15.47;64.67
8641;BME280;4358;42.100;25.222;2024-03-25T11:26:21;98972.81;;;15.44;61.79
8641;BME280;4358;42.100;25.222;2024-03-25T11:28:47;98978.59;;;15.39;60.77
8641;BME280;4358;42.100;25.222;2024-03-25T11:31:13;98998.53;;;15.45;56.43
8641;BME280;4358;42.100;25.222;2024-03-25T11:33:41;98980.59;;;15.55;54.03
8641;BME280;4358;42.100;25.222;2024-03-25T11:36:07;99019.06;;;15.44;53.52
8641;BME280;4358;42.100;25.222;2024-03-25T11:38:33;98968.56;;;15.15;53.92
8641;BME280;4358;42.100;25.222;2024-03-25T11:41:00;98981.06;;;14.97;50.92
8641;BME280;4358;42.100;25.222;2024-03-25T11:43:26;98974.50;;;15.09;48.00
8641;BME280;4358;42.100;25.222;2024-03-25T11:45:52;98996.75;;;15.27;47.14
8641;BME280;4358;42.100;25.222;2024-03-25T11:48:19;98989.56;;;15.10;46.34
8641;BME280;4358;42.100;25.222;2024-03-25T11:50:47;98979.31;;;14.88;46.56
8641;BME280;4358;42.100;25.222;2024-03-25T11:53:13;98974.06;;;14.78;45.80
8641;BME280;4358;42.100;25.222;2024-03-25T11:55:40;98986.19;;;14.73;45.81
8641;BME280;4358;42.100;25.222;2024-03-25T11:58:06;98992.31;;;15.01;45.38
8641;BME280;4358;42.100;25.222;2024-03-25T12:00:32;99042.41;;;15.16;43.55
8641;BME280;4358;42.100;25.222;2024-03-25T12:02:59;98992.69;;;15.06;41.75
8641;BME280;4358;42.100;25.222;2024-03-25T12:05:25;99013.00;;;14.81;42.33
8641;BME280;4358;42.100;25.222;2024-03-25T12:07:53;99010.75;;;14.59;47.13
8641;BME280;4358;42.100;25.222;2024-03-25T12:10:18;99004.50;;;14.68;46.42
8641;BME280;4358;42.100;25.222;2024-03-25T12:13:03;98993.69;;;15.22;43.38
8641;BME280;4358;42.100;25.222;2024-03-25T12:15:30;98995.34;;;15.41;42.29
8641;BME280;4358;42.100;25.222;2024-03-25T12:17:56;98994.34;;;15.42;41.37
8641;BME280;4358;42.100;25.222;2024-03-25T12:20:22;98998.78;;;15.77;42.61
8641;BME280;4358;42.100;25.222;2024-03-25T12:22:48;99005.31;;;15.75;42.91
8641;BME280;4358;42.100;25.222;2024-03-25T12:25:15;99011.28;;;15.51;42.70
8641;BME280;4358;42.100;25.222;2024-03-25T12:27:46;99001.69;;;15.58;42.96
8641;BME280;4358;42.100;25.222;2024-03-25T12:30:12;98996.81;;;15.79;43.34
8641;BME280;4358;42.100;25.222;2024-03-25T12:32:39;99014.22;;;15.83;41.63
8641;BME280;4358;42.100;25.222;2024-03-25T12:35:08;99021.03;;;15.52;40.28
8641;BME280;4358;42.100;25.222;2024-03-25T12:37:36;99025.28;;;15.09;42.55
8641;BME280;4358;42.100;25.222;2024-03-25T12:40:04;98999.41;;;14.92;46.70
8641;BME280;4358;42.100;25.222;2024-03-25T12:42:32;99028.66;;;15.11;46.75
8641;BME280;4358;42.100;25.222;2024-03-25T12:44:58;99029.88;;;14.99;48.32
8641;BME280;4358;42.100;25.222;2024-03-25T12:47:24;99020.41;;;15.22;49.41
8641;BME280;4358;42.100;25.222;2024-03-25T12:49:50;99028.56;;;15.39;48.29
8641;BME280;4358;42.100;25.222;2024-03-25T12:52:16;99022.16;;;15.32;48.82
8641;BME280;4358;42.100;25.222;2024-03-25T12:54:42;99022.84;;;15.69;51.14
8641;BME280;4358;42.100;25.222;2024-03-25T12:57:08;99032.06;;;16.00;48.55
8641;BME280;4358;42.100;25.222;2024-03-25T12:59:35;99038.78;;;15.79;48.98
8641;BME280;4358;42.100;25.222;2024-03-25T13:02:04;99046.22;;;15.67;45.81
8641;BME280;4358;42.100;25.222;2024-03-25T13:04:30;99028.44;;;15.58;45.26